createdAt,value
2022-07-29T00:00:59.860Z,100473.78
2022-07-29T00:03:04.779Z,100473.61
2022-07-29T00:05:09.698Z,100471.17
2022-07-29T00:07:15.087Z,100475.08
2022-07-29T00:09:19.657Z,100480.56
2022-07-29T00:11:24.284Z,100479.86
2022-07-29T00:13:33.413Z,100482.3
2022-07-29T00:15:38.147Z,100481.01
2022-07-29T00:17:42.785Z,100480.56
2022-07-29T00:19:47.573Z,100478.59
2022-07-29T00:21:52.309Z,100481.2
2022-07-29T00:23:56.979Z,100486.14
2022-07-29T00:26:01.657Z,100484.8
2022-07-29T00:28:06.471Z,100482.27
2022-07-29T00:30:11.093Z,100478.28
2022-07-29T00:32:15.796Z,100477.92
2022-07-29T00:34:20.309Z,100482.55
2022-07-29T00:36:25.195Z,100475.7
2022-07-29T00:38:30.117Z,100469.73
2022-07-29T00:40:34.812Z,100468.17
2022-07-29T00:42:39.833Z,100461.05
2022-07-29T00:44:44.553Z,100464.42
2022-07-29T00:46:49.593Z,100472.19
2022-07-29T00:48:54.548Z,100472.9
2022-07-29T00:50:59.357Z,100467.23
2022-07-29T00:53:04.288Z,100464.74
2022-07-29T00:55:09.921Z,100467.25
2022-07-29T00:57:14.590Z,100470.76
2022-07-29T00:59:19.583Z,100468.23
2022-07-29T01:01:24.558Z,100469.19
2022-07-29T01:03:29.421Z,100469.48
2022-07-29T01:05:52.153Z,100467.74
2022-07-29T01:07:57.124Z,100472.44
2022-07-29T01:10:01.733Z,100466.17
2022-07-29T01:12:09.500Z,100465.19
2022-07-29T01:14:14.753Z,100465.94
2022-07-29T01:16:20.217Z,100474.06
2022-07-29T01:18:25.401Z,100476.03
2022-07-29T01:20:32.602Z,100470.21
2022-07-29T01:22:37.276Z,100469.53
2022-07-29T01:24:41.875Z,100471.34
2022-07-29T01:26:46.390Z,100464.03
2022-07-29T01:28:52.168Z,100463.58
2022-07-29T01:30:58.576Z,100460.24
2022-07-29T01:33:03.317Z,100461.11
2022-07-29T01:35:08.353Z,100456.08
2022-07-29T01:37:12.905Z,100458.17
2022-07-29T01:39:17.695Z,100454.42
2022-07-29T01:41:22.426Z,100454.11
2022-07-29T01:43:27.046Z,100460.95
2022-07-29T01:45:31.767Z,100455.81
2022-07-29T01:47:36.952Z,100453.14
2022-07-29T01:49:41.534Z,100451.83
2022-07-29T01:51:46.228Z,100450.95
2022-07-29T01:53:50.758Z,100446.47
2022-07-29T01:55:59.958Z,100446.96
2022-07-29T01:58:04.717Z,100447.41
2022-07-29T02:00:09.522Z,100443.41
2022-07-29T02:02:14.303Z,100437.8
2022-07-29T02:04:30.863Z,100437.55
2022-07-29T02:06:35.486Z,100432.43
2022-07-29T02:08:40.070Z,100440.23
2022-07-29T02:10:44.933Z,100438.57
2022-07-29T02:12:52.086Z,100433.73
2022-07-29T02:14:56.739Z,100431.16
2022-07-29T02:17:01.231Z,100432.43
2022-07-29T02:19:05.743Z,100434.61
2022-07-29T02:21:16.904Z,100430.48
2022-07-29T02:23:21.575Z,100429.84
2022-07-29T02:25:38.511Z,100424.13
2022-07-29T02:27:43.593Z,100420.22
2022-07-29T02:29:48.133Z,100424.86
2022-07-29T02:31:52.854Z,100431.88
2022-07-29T02:33:57.374Z,100428.41
2022-07-29T02:36:01.963Z,100437.28
2022-07-29T02:38:06.514Z,100434.2
2022-07-29T02:40:11.133Z,100431.89
2022-07-29T02:42:15.722Z,100430.05
2022-07-29T02:44:21.168Z,100434.36
2022-07-29T02:46:30.209Z,100436.3
2022-07-29T02:48:34.831Z,100440.45
2022-07-29T02:50:39.565Z,100435.77
2022-07-29T02:52:44.266Z,100435.77
2022-07-29T02:54:48.817Z,100433.99
2022-07-29T02:56:53.431Z,100434.38
2022-07-29T02:58:58.015Z,100434.93
2022-07-29T03:01:02.566Z,100436.38
2022-07-29T03:03:07.290Z,100431.07
2022-07-29T03:05:12.146Z,100431.82
2022-07-29T03:07:16.845Z,100437.41
2022-07-29T03:09:21.457Z,100444.42
2022-07-29T03:11:51.217Z,100439.59
2022-07-29T03:13:55.798Z,100443.83
2022-07-29T03:16:00.516Z,100441.97
2022-07-29T03:18:05.286Z,100443.05
2022-07-29T03:20:09.863Z,100443.5
2022-07-29T03:22:14.378Z,100444.31
2022-07-29T03:24:22.683Z,100445.3
2022-07-29T03:26:27.209Z,100446.65
2022-07-29T03:28:32.746Z,100446
2022-07-29T03:30:40.644Z,100443.89
2022-07-29T03:32:50.036Z,100448.3
2022-07-29T03:34:56.853Z,100446.58
2022-07-29T03:37:01.575Z,100447.58
2022-07-29T03:39:06.303Z,100442.38
2022-07-29T03:41:10.916Z,100447.5
2022-07-29T03:43:15.538Z,100446.88
2022-07-29T03:45:20.130Z,100448.23
2022-07-29T03:47:52.966Z,100452.86
2022-07-29T03:50:04.197Z,100451.6
2022-07-29T03:52:08.838Z,100455.02
2022-07-29T03:54:13.360Z,100451.13
2022-07-29T03:56:18.182Z,100456.89
2022-07-29T03:58:22.779Z,100456.91
2022-07-29T04:00:27.628Z,100457.16
2022-07-29T04:02:32.319Z,100459.13
2022-07-29T04:04:36.996Z,100461.26
2022-07-29T04:06:41.572Z,100455.08
2022-07-29T04:08:46.215Z,100460.72
2022-07-29T04:10:50.940Z,100456.45
2022-07-29T04:12:55.669Z,100457.05
2022-07-29T04:15:00.285Z,100462.05
2022-07-29T04:17:05.009Z,100460.3
2022-07-29T04:19:10.141Z,100456.34
2022-07-29T04:21:15.318Z,100455.78
2022-07-29T04:23:19.997Z,100458.48
2022-07-29T04:25:24.694Z,100455.67
2022-07-29T04:27:29.236Z,100453.05
2022-07-29T04:29:33.833Z,100454.03
2022-07-29T04:31:38.578Z,100449.75
2022-07-29T04:33:43.408Z,100447.96
2022-07-29T04:35:56.115Z,100450.16
2022-07-29T04:38:00.619Z,100447.62
2022-07-29T04:40:05.360Z,100447.36
2022-07-29T04:42:09.983Z,100448.23
2022-07-29T04:44:15.480Z,100448.39
2022-07-29T04:46:22.651Z,100449.89
2022-07-29T04:48:30.097Z,100447.22
2022-07-29T04:50:34.592Z,100451.33
2022-07-29T04:52:39.097Z,100447.52
2022-07-29T04:54:43.647Z,100446.73
2022-07-29T04:56:48.923Z,100445.27
2022-07-29T04:58:53.505Z,100447.13
2022-07-29T05:00:58.024Z,100455.42
2022-07-29T05:03:03.007Z,100450.89
2022-07-29T05:05:07.681Z,100446.03
2022-07-29T05:07:12.401Z,100448.36
2022-07-29T05:09:17.090Z,100445.92
2022-07-29T05:11:28.603Z,100445.86
2022-07-29T05:13:47.458Z,100447.79
2022-07-29T05:15:52.730Z,100448.88
2022-07-29T05:17:57.623Z,100455.57
2022-07-29T05:20:02.249Z,100462.8
2022-07-29T05:22:06.874Z,100453.45
2022-07-29T05:24:11.484Z,100455.44
2022-07-29T05:26:16.517Z,100447.08
2022-07-29T05:28:21.104Z,100446.91
2022-07-29T05:30:25.756Z,100453.69
2022-07-29T05:32:30.483Z,100457.14
2022-07-29T05:34:35.206Z,100463.66
2022-07-29T05:36:39.897Z,100456.3
2022-07-29T05:38:44.561Z,100455.12
2022-07-29T05:40:49.170Z,100455.22
2022-07-29T05:42:53.793Z,100444.98
2022-07-29T05:44:58.393Z,100446.11
2022-07-29T05:47:03.023Z,100447.29
2022-07-29T05:49:07.812Z,100446.95
2022-07-29T05:51:12.549Z,100447.06
2022-07-29T05:53:21.506Z,100447.75
2022-07-29T05:55:26.197Z,100451
2022-07-29T05:57:30.851Z,100453.45
2022-07-29T05:59:35.574Z,100453.44
2022-07-29T06:01:40.455Z,100458.63
2022-07-29T06:03:45.229Z,100461.8
2022-07-29T06:05:49.841Z,100456.75
2022-07-29T06:07:54.472Z,100453.14
2022-07-29T06:09:59.099Z,100454.84
2022-07-29T06:12:03.785Z,100453.87
2022-07-29T06:14:08.533Z,100450.78
2022-07-29T06:16:16.798Z,100454.87
2022-07-29T06:18:34.774Z,100452.13
2022-07-29T06:20:39.397Z,100449.63
2022-07-29T06:22:44.010Z,100444.98
2022-07-29T06:24:48.612Z,100447.14
2022-07-29T06:26:53.155Z,100445.44
2022-07-29T06:28:57.671Z,100444.88
2022-07-29T06:31:02.410Z,100446.3
2022-07-29T06:33:07.055Z,100441.13
2022-07-29T06:35:42.687Z,100445.31
2022-07-29T06:38:00.900Z,100447.35
2022-07-29T06:40:05.560Z,100448.6
2022-07-29T06:42:09.980Z,100452.45
2022-07-29T06:44:15.274Z,100449.97
2022-07-29T06:46:22.679Z,100454.25
2022-07-29T06:48:27.643Z,100452.13
2022-07-29T06:50:32.183Z,100458.96
2022-07-29T06:52:36.593Z,100455.42
2022-07-29T06:54:41.361Z,100458.42
2022-07-29T06:56:45.973Z,100460.22
2022-07-29T06:58:50.592Z,100462.42
2022-07-29T07:00:55.369Z,100459.86
2022-07-29T07:03:00.106Z,100458.91
2022-07-29T07:05:04.649Z,100457.41
2022-07-29T07:07:09.233Z,100451.55
2022-07-29T07:09:14.006Z,100451.68
2022-07-29T07:11:18.624Z,100454.46
2022-07-29T07:13:23.225Z,100452.15
2022-07-29T07:15:40.970Z,100452.14
2022-07-29T07:17:45.596Z,100457.13
2022-07-29T07:19:50.322Z,100449.53
2022-07-29T07:21:56.788Z,100446.5
2022-07-29T07:24:01.759Z,100445.47
2022-07-29T07:26:06.544Z,100442.16
2022-07-29T07:28:12.204Z,100440.78
2022-07-29T07:30:16.934Z,100441.81
2022-07-29T07:32:21.677Z,100445.53
2022-07-29T07:34:30.751Z,100438.39
2022-07-29T07:36:35.446Z,100439.27
2022-07-29T07:38:40.106Z,100439.49
2022-07-29T07:40:44.715Z,100442.63
2022-07-29T07:42:49.646Z,100440.44
2022-07-29T07:45:16.316Z,100437.58
2022-07-29T07:47:21.522Z,100435.7
2022-07-29T07:49:27.631Z,100434.05
2022-07-29T07:51:32.421Z,100429.48
2022-07-29T07:53:37.228Z,100429.36
2022-07-29T07:56:12.053Z,100432.88
2022-07-29T07:58:17.079Z,100430.7
2022-07-29T08:00:24.724Z,100425.8
2022-07-29T08:02:29.523Z,100431.17
2022-07-29T08:04:34.216Z,100428.11
2022-07-29T08:06:38.706Z,100429.83
2022-07-29T08:08:43.797Z,100429.66
2022-07-29T08:10:48.365Z,100431.7
2022-07-29T08:12:52.934Z,100424.15
2022-07-29T08:14:57.600Z,100426.2
2022-07-29T08:17:02.609Z,100423.96
2022-07-29T08:19:07.385Z,100422.84
2022-07-29T08:21:15.802Z,100426.38
2022-07-29T08:23:20.571Z,100424.44
2022-07-29T08:25:25.223Z,100422.3
2022-07-29T08:27:45.935Z,100430.62
2022-07-29T08:29:50.541Z,100434.55
2022-07-29T08:31:56.069Z,100433.63
2022-07-29T08:34:01.040Z,100434.81
2022-07-29T08:36:05.759Z,100436.15
2022-07-29T08:38:10.386Z,100432.28
2022-07-29T08:40:15.116Z,100443.81
2022-07-29T08:42:19.818Z,100434.4
2022-07-29T08:44:32.127Z,100431.98
2022-07-29T08:46:36.829Z,100432.69
2022-07-29T08:48:41.539Z,100435
2022-07-29T08:50:47.720Z,100434.53
2022-07-29T08:52:59.970Z,100433.69
2022-07-29T08:55:04.746Z,100426.63
2022-07-29T08:57:10.346Z,100426.13
2022-07-29T08:59:21.207Z,100422.47
2022-07-29T09:01:42.586Z,100422.05
2022-07-29T09:03:50.812Z,100417.13
2022-07-29T09:05:55.489Z,100421.48
2022-07-29T09:08:00.119Z,100421.02
2022-07-29T09:10:04.841Z,100417.09
2022-07-29T09:12:09.567Z,100414.13
2022-07-29T09:14:14.161Z,100416.41
2022-07-29T09:16:52.943Z,100420.28
2022-07-29T09:18:58.451Z,100415.84
2022-07-29T09:21:03.073Z,100413.56
2022-07-29T09:23:07.688Z,100415.34
2022-07-29T09:25:12.433Z,100412.52
2022-07-29T09:27:17.341Z,100413.64
2022-07-29T09:29:22.435Z,100413.95
2022-07-29T09:31:27.662Z,100410.91
2022-07-29T09:33:32.427Z,100412.53
2022-07-29T09:35:37.257Z,100406.73
2022-07-29T09:37:41.891Z,100404.59
2022-07-29T09:39:47.398Z,100402.56
2022-07-29T09:41:52.247Z,100397.9
2022-07-29T09:43:56.877Z,100398.41
2022-07-29T09:46:01.464Z,100399.34
2022-07-29T09:48:06.080Z,100398.3
2022-07-29T09:50:10.735Z,100400.08
2022-07-29T09:52:15.351Z,100394.52
2022-07-29T09:54:19.973Z,100390.2
2022-07-29T09:56:24.697Z,100391.89
2022-07-29T09:58:29.517Z,100388.23
2022-07-29T10:00:34.332Z,100389.89
2022-07-29T10:02:39.074Z,100385.72
2022-07-29T10:04:43.749Z,100385.74
2022-07-29T10:06:48.452Z,100383.52
2022-07-29T10:08:53.137Z,100390.81
2022-07-29T10:10:57.960Z,100389.34
2022-07-29T10:13:12.154Z,100382.92
2022-07-29T10:15:19.796Z,100384.59
2022-07-29T10:17:24.416Z,100386.2
2022-07-29T10:19:29.026Z,100387.7
2022-07-29T10:21:37.099Z,100377.14
2022-07-29T10:23:48.426Z,100377.13
2022-07-29T10:25:53.139Z,100382.92
2022-07-29T10:27:57.867Z,100381.39
2022-07-29T10:30:02.486Z,100379.64
2022-07-29T10:32:07.414Z,100380.49
2022-07-29T10:34:13.407Z,100376.88
2022-07-29T10:36:19.661Z,100378.2
2022-07-29T10:38:27.215Z,100371.69
2022-07-29T10:40:32.757Z,100374.67
2022-07-29T10:42:41.027Z,100373.59
2022-07-29T10:44:45.995Z,100367.02
2022-07-29T10:46:51.016Z,100368.69
2022-07-29T10:48:57.735Z,100375.01
2022-07-29T10:51:05.318Z,100378.22
2022-07-29T10:53:15.435Z,100367.22
2022-07-29T10:55:21.784Z,100365.61
2022-07-29T10:57:55.541Z,100364.22
2022-07-29T11:00:03.904Z,100358.94
2022-07-29T11:02:41.249Z,100354.78
2022-07-29T11:04:49.647Z,100349.3
2022-07-29T11:06:58.319Z,100354.92
2022-07-29T11:09:10.520Z,100352.03
2022-07-29T11:11:18.511Z,100354.54
2022-07-29T11:13:28.288Z,100357.81
2022-07-29T11:15:45.098Z,100359.83
2022-07-29T11:17:54.290Z,100351.55
2022-07-29T11:20:03.787Z,100349.7
2022-07-29T11:22:10.706Z,100362.14
2022-07-29T11:24:30.513Z,100355.73
2022-07-29T11:26:35.814Z,100357.97
2022-07-29T11:28:44.851Z,100357.92
2022-07-29T11:30:49.439Z,100353.3
2022-07-29T11:32:54.573Z,100364.31
2022-07-29T11:35:00.748Z,100363.69
2022-07-29T11:37:29.438Z,100369.47
2022-07-29T11:39:47.282Z,100360.1
2022-07-29T11:41:54.422Z,100360.98
2022-07-29T11:44:09.953Z,100364.36
2022-07-29T11:46:15.053Z,100359.23
2022-07-29T11:48:33.494Z,100360.27
2022-07-29T11:50:45.904Z,100361.13
2022-07-29T11:52:53.290Z,100360.43
2022-07-29T11:55:10.607Z,100360.66
2022-07-29T11:57:17.002Z,100355.03
2022-07-29T11:59:22.117Z,100361.14
2022-07-29T12:01:37.162Z,100361.6
2022-07-29T12:03:41.839Z,100360.92
2022-07-29T12:05:53.088Z,100358.76
2022-07-29T12:08:01.062Z,100353.52
2022-07-29T12:10:07.218Z,100352.52
2022-07-29T12:12:33.345Z,100345.36
2022-07-29T12:14:38.275Z,100350.59
2022-07-29T12:16:45.192Z,100352.3
2022-07-29T12:18:49.974Z,100349.94
2022-07-29T12:20:54.591Z,100347.63
2022-07-29T12:23:00.039Z,100344.12
2022-07-29T12:25:33.876Z,100340.33
2022-07-29T12:27:41.624Z,100350.44
2022-07-29T12:29:49.958Z,100341.38
2022-07-29T12:31:59.447Z,100337.88
2022-07-29T12:34:05.325Z,100330.19
2022-07-29T12:36:18.568Z,100325.02
2022-07-29T12:38:23.284Z,100324.25
2022-07-29T12:40:27.901Z,100326.33
2022-07-29T12:42:32.629Z,100327.91
2022-07-29T12:44:37.553Z,100326.85
2022-07-29T12:46:42.801Z,100319.94
2022-07-29T12:48:47.715Z,100316.6
2022-07-29T12:50:52.447Z,100316.77
2022-07-29T12:52:57.035Z,100317.3
2022-07-29T12:55:01.661Z,100315.83
2022-07-29T12:57:06.604Z,100317.44
2022-07-29T12:59:24.130Z,100309.63
2022-07-29T13:01:29.971Z,100308
2022-07-29T13:03:36.912Z,100309.72
2022-07-29T13:05:49.276Z,100308.67
2022-07-29T13:07:58.345Z,100310.38
2022-07-29T13:10:04.134Z,100294.64
2022-07-29T13:12:08.953Z,100293.5
2022-07-29T13:14:13.678Z,100295.91
2022-07-29T13:16:18.515Z,100295.09
2022-07-29T13:18:25.588Z,100294.49
2022-07-29T13:20:30.301Z,100301.86
2022-07-29T13:22:34.921Z,100296.27
2022-07-29T13:24:39.646Z,100301.7
2022-07-29T13:26:44.271Z,100295.27
2022-07-29T13:28:48.974Z,100293.57
2022-07-29T13:30:53.880Z,100285.24
2022-07-29T13:32:58.744Z,100284.08
2022-07-29T13:35:06.643Z,100276.27
2022-07-29T13:37:11.139Z,100277.45
2022-07-29T13:39:15.671Z,100268.09
2022-07-29T13:41:20.258Z,100270.16
2022-07-29T13:43:24.100Z,100269.36
2022-07-29T13:45:30.289Z,100265.16
2022-07-29T13:47:35.047Z,100271.92
2022-07-29T13:49:39.917Z,100273.99
2022-07-29T13:51:44.635Z,100274.71
2022-07-29T13:53:49.259Z,100272.63
2022-07-29T13:55:53.985Z,100273.67
2022-07-29T13:57:59.015Z,100268.53
2022-07-29T14:00:03.708Z,100269.75
2022-07-29T14:02:08.255Z,100273.82
2022-07-29T14:04:13.473Z,100277.98
2022-07-29T14:06:19.344Z,100272
2022-07-29T14:08:27.240Z,100270.48
2022-07-29T14:10:31.832Z,100265.45
2022-07-29T14:12:36.482Z,100263.44
2022-07-29T14:14:41.209Z,100264.08
2022-07-29T14:16:52.267Z,100264.2
2022-07-29T14:18:57.512Z,100257.35
2022-07-29T14:21:02.233Z,100258.29
2022-07-29T14:23:07.062Z,100255.42
2022-07-29T14:25:16.289Z,100253.91
2022-07-29T14:27:39.384Z,100255.47
2022-07-29T14:29:46.827Z,100256.64
2022-07-29T14:31:51.604Z,100258.98
2022-07-29T14:34:02.687Z,100253.58
2022-07-29T14:36:08.245Z,100250.68
2022-07-29T14:38:12.896Z,100247.34
2022-07-29T14:40:17.522Z,100247.62
2022-07-29T14:42:22.134Z,100245.23
2022-07-29T14:44:26.966Z,100251.31
2022-07-29T14:46:32.150Z,100253.23
2022-07-29T14:48:36.908Z,100257.78
2022-07-29T14:50:41.473Z,100252.01
2022-07-29T14:52:46.055Z,100250.44
2022-07-29T14:54:52.792Z,100249.76
2022-07-29T14:56:57.191Z,100247.78
2022-07-29T14:59:02.317Z,100246.63
2022-07-29T15:01:07.016Z,100244.65
2022-07-29T15:03:12.319Z,100244.11
2022-07-29T15:05:28.526Z,100241.64
2022-07-29T15:07:33.037Z,100244.95
2022-07-29T15:09:49.363Z,100240.47
2022-07-29T15:11:54.478Z,100240.94
2022-07-29T15:13:59.600Z,100235.2
2022-07-29T15:16:06.550Z,100234.36
2022-07-29T15:18:11.201Z,100230.3
2022-07-29T15:20:15.893Z,100226.34
2022-07-29T15:22:20.442Z,100226.5
2022-07-29T15:24:25.067Z,100227.66
2022-07-29T15:26:29.795Z,100230.59
2022-07-29T15:28:34.614Z,100230.94
2022-07-29T15:30:39.233Z,100225.66
2022-07-29T15:32:43.908Z,100218.7
2022-07-29T15:34:48.473Z,100216.13
2022-07-29T15:36:54.766Z,100220.92
2022-07-29T15:38:59.363Z,100223.45
2022-07-29T15:41:03.975Z,100223.61
2022-07-29T15:43:08.575Z,100216.42
2022-07-29T15:45:13.326Z,100221.75
2022-07-29T15:47:17.841Z,100222.61
2022-07-29T15:49:23.916Z,100224.93
2022-07-29T15:51:28.714Z,100221.91
2022-07-29T15:53:36.206Z,100217.81
2022-07-29T15:55:45.556Z,100212.11
2022-07-29T15:57:50.368Z,100216.02
2022-07-29T15:59:54.988Z,100215.45
2022-07-29T16:01:59.674Z,100217.77
2022-07-29T16:04:04.411Z,100215.28
2022-07-29T16:06:09.131Z,100214.83
2022-07-29T16:08:13.693Z,100211.61
2022-07-29T16:10:18.302Z,100210.4
2022-07-29T16:12:22.919Z,100209.8
2022-07-29T16:14:29.600Z,100204.52
2022-07-29T16:16:34.486Z,100205.91
2022-07-29T16:18:39.244Z,100204.48
2022-07-29T16:20:44.176Z,100201.89
2022-07-29T16:22:48.892Z,100207.55
2022-07-29T16:24:53.527Z,100202.52
2022-07-29T16:26:59.051Z,100197.73
2022-07-29T16:29:04.806Z,100194.8
2022-07-29T16:31:09.406Z,100198.69
2022-07-29T16:33:15.892Z,100193.49
2022-07-29T16:35:20.323Z,100192.31
2022-07-29T16:37:24.785Z,100197.27
2022-07-29T16:39:33.237Z,100191.95
2022-07-29T16:41:37.958Z,100189.18
2022-07-29T16:43:42.684Z,100191.33
2022-07-29T16:45:48.593Z,100191.48
2022-07-29T16:48:00.101Z,100200.12
2022-07-29T16:50:05.033Z,100197.52
2022-07-29T16:52:09.767Z,100198.11
2022-07-29T16:54:14.389Z,100190.48
2022-07-29T16:56:19.114Z,100192.73
2022-07-29T16:58:23.714Z,100189.67
2022-07-29T17:00:28.356Z,100184.29
2022-07-29T17:02:33.079Z,100187.38
2022-07-29T17:04:37.529Z,100187.08
2022-07-29T17:06:42.322Z,100182.64
2022-07-29T17:08:47.048Z,100181.63
2022-07-29T17:10:51.670Z,100181.82
2022-07-29T17:12:56.282Z,100183.34
2022-07-29T17:15:01.535Z,100175.27
2022-07-29T17:17:15.638Z,100178.3
2022-07-29T17:19:42.614Z,100180.97
2022-07-29T17:21:50.382Z,100178.86
2022-07-29T17:23:55.016Z,100177.7
2022-07-29T17:25:59.546Z,100178.36
2022-07-29T17:28:04.178Z,100182.95
2022-07-29T17:30:08.879Z,100182.17
2022-07-29T17:32:13.727Z,100185.97
2022-07-29T17:34:18.782Z,100183.98
2022-07-29T17:36:23.678Z,100191.36
2022-07-29T17:38:28.371Z,100187.52
2022-07-29T17:40:32.918Z,100187.45
2022-07-29T17:42:37.644Z,100191.98
2022-07-29T17:44:42.478Z,100194.92
2022-07-29T17:46:47.367Z,100197.24
2022-07-29T17:48:52.176Z,100198.86
2022-07-29T17:50:57.024Z,100201.55
2022-07-29T17:53:01.669Z,100205.64
2022-07-29T17:55:13.134Z,100208.95
2022-07-29T17:57:17.982Z,100205.45
2022-07-29T17:59:22.592Z,100209.68
2022-07-29T18:01:27.231Z,100208.86
2022-07-29T18:03:31.842Z,100210.4
2022-07-29T18:05:36.578Z,100212.47
2022-07-29T18:07:41.301Z,100211.94
2022-07-29T18:09:46.025Z,100212.86
2022-07-29T18:11:50.645Z,100209.02
2022-07-29T18:13:55.261Z,100213.36
2022-07-29T18:16:01.942Z,100215.97
2022-07-29T18:18:06.643Z,100218.83
2022-07-29T18:20:11.379Z,100222.66
2022-07-29T18:22:15.994Z,100221.09
2022-07-29T18:24:20.514Z,100219.22
2022-07-29T18:26:31.493Z,100220.66
2022-07-29T18:28:41.128Z,100217.82
2022-07-29T18:30:46.053Z,100219.02
2022-07-29T18:33:21.070Z,100223.12
2022-07-29T18:35:26.733Z,100225.23
2022-07-29T18:38:03.574Z,100219.84
2022-07-29T18:40:08.132Z,100220.16
2022-07-29T18:42:12.846Z,100213.64
2022-07-29T18:44:17.469Z,100216.3
2022-07-29T18:46:22.681Z,100220.41
2022-07-29T18:48:29.057Z,100219.58
2022-07-29T18:50:33.585Z,100218.48
2022-07-29T18:52:38.051Z,100216.53
2022-07-29T18:54:42.504Z,100216.16
2022-07-29T18:56:46.977Z,100216.84
2022-07-29T18:58:51.380Z,100215.38
2022-07-29T19:00:55.803Z,100219.22
2022-07-29T19:03:00.536Z,100212.83
2022-07-29T19:05:05.310Z,100212.27
2022-07-29T19:07:09.830Z,100214.28
2022-07-29T19:09:14.433Z,100211.06
2022-07-29T19:11:18.966Z,100216.95
2022-07-29T19:13:23.696Z,100212.38
2022-07-29T19:15:28.310Z,100215.11
2022-07-29T19:17:33.034Z,100215.36
2022-07-29T19:19:37.859Z,100215.13
2022-07-29T19:21:42.375Z,100215.55
2022-07-29T19:24:11.169Z,100215.92
2022-07-29T19:26:21.831Z,100215.2
2022-07-29T19:28:29.926Z,100214.47
2022-07-29T19:30:34.547Z,100209.85
2022-07-29T19:32:39.113Z,100212.26
2022-07-29T19:34:50.912Z,100213.23
2022-07-29T19:36:55.816Z,100211.43
2022-07-29T19:39:01.225Z,100211.57
2022-07-29T19:41:05.844Z,100214.23
2022-07-29T19:43:53.000Z,100210.02
2022-07-29T19:45:58.169Z,100207
2022-07-29T19:48:03.011Z,100204.01
2022-07-29T19:50:07.743Z,100201.66
2022-07-29T19:52:12.466Z,100198.73
2022-07-29T19:54:17.089Z,100202.64
2022-07-29T19:56:22.058Z,100201.91
2022-07-29T19:58:29.335Z,100201.3
2022-07-29T20:00:34.325Z,100206.25
2022-07-29T20:02:39.677Z,100208.67
2022-07-29T20:04:44.486Z,100215.56
2022-07-29T20:06:49.112Z,100220.66
2022-07-29T20:08:59.520Z,100220.03
2022-07-29T20:11:04.189Z,100223.52
2022-07-29T20:13:08.913Z,100219.34
2022-07-29T20:15:17.526Z,100220.09
2022-07-29T20:17:22.046Z,100215.63
2022-07-29T20:19:26.766Z,100209.7
2022-07-29T20:21:31.384Z,100205.83
2022-07-29T20:23:36.116Z,100207.95
2022-07-29T20:25:40.734Z,100207.91
2022-07-29T20:27:45.327Z,100211.46
2022-07-29T20:29:50.076Z,100220.86
2022-07-29T20:31:57.731Z,100219.97
2022-07-29T20:34:02.501Z,100223.83
2022-07-29T20:36:07.110Z,100229.8
2022-07-29T20:38:18.282Z,100229.42
2022-07-29T20:40:23.097Z,100233.22
2022-07-29T20:42:27.938Z,100230.7
2022-07-29T20:44:32.627Z,100231.07
2022-07-29T20:46:37.544Z,100232.84
2022-07-29T20:48:42.524Z,100236.48
2022-07-29T20:50:47.325Z,100239.04
2022-07-29T20:52:52.067Z,100238.48
2022-07-29T20:54:56.676Z,100242.28
2022-07-29T20:57:02.240Z,100238.98
2022-07-29T20:59:07.149Z,100243.17
2022-07-29T21:01:11.823Z,100243.03
2022-07-29T21:03:16.747Z,100240.09
2022-07-29T21:05:21.333Z,100239.85
2022-07-29T21:07:25.941Z,100237.27
2022-07-29T21:09:30.543Z,100234.58
2022-07-29T21:11:46.035Z,100234.67
2022-07-29T21:13:50.658Z,100229.02
2022-07-29T21:15:55.504Z,100222.19
2022-07-29T21:18:00.181Z,100215.42
2022-07-29T21:20:04.823Z,100207.52
2022-07-29T21:22:09.447Z,100203.35
2022-07-29T21:24:14.070Z,100204.63
2022-07-29T21:26:18.685Z,100204.71
2022-07-29T21:28:23.280Z,100208.22
2022-07-29T21:30:27.823Z,100204.19
2022-07-29T21:32:32.478Z,100208.44
2022-07-29T21:34:37.139Z,100202.08
2022-07-29T21:36:49.684Z,100204.48
2022-07-29T21:38:54.407Z,100200.22
2022-07-29T21:40:59.119Z,100200.3
2022-07-29T21:43:03.888Z,100196.96
2022-07-29T21:45:08.474Z,100191.27
2022-07-29T21:47:16.649Z,100202.52
2022-07-29T21:49:21.614Z,100209.25
2022-07-29T21:51:26.499Z,100215.13
2022-07-29T21:53:31.824Z,100214.3
2022-07-29T21:55:36.588Z,100213.19
2022-07-29T21:57:41.510Z,100213.89
2022-07-29T21:59:46.132Z,100212.89
2022-07-29T22:01:50.777Z,100216.83
2022-07-29T22:03:56.089Z,100220.7
2022-07-29T22:06:00.815Z,100215.96
2022-07-29T22:08:05.434Z,100211.52
2022-07-29T22:10:11.490Z,100200.86
2022-07-29T22:12:16.106Z,100198.75
2022-07-29T22:14:20.726Z,100194.83
2022-07-29T22:16:25.492Z,100190.2
2022-07-29T22:18:30.280Z,100196.55
2022-07-29T22:20:35.947Z,100205.66
2022-07-29T22:22:40.652Z,100204.77
2022-07-29T22:24:45.266Z,100205.73
2022-07-29T22:26:49.752Z,100206.89
2022-07-29T22:28:54.367Z,100196.85
2022-07-29T22:30:59.116Z,100181.97
2022-07-29T22:33:03.954Z,100177.95
2022-07-29T22:35:08.552Z,100177.76
2022-07-29T22:37:13.176Z,100172.95
2022-07-29T22:39:17.718Z,100172.77
2022-07-29T22:41:22.203Z,100176.08
2022-07-29T22:43:26.846Z,100176.16
2022-07-29T22:45:31.371Z,100175.84
2022-07-29T22:47:48.987Z,100175.67
2022-07-29T22:50:03.135Z,100172.3
2022-07-29T22:52:07.660Z,100169.02
2022-07-29T22:54:12.273Z,100159.17
2022-07-29T22:56:16.899Z,100158.98
2022-07-29T22:58:21.409Z,100158.24
2022-07-29T23:00:26.037Z,100155.48
2022-07-29T23:02:30.872Z,100156.41
2022-07-29T23:04:35.576Z,100153.98
2022-07-29T23:06:40.410Z,100152.55
2022-07-29T23:08:44.998Z,100154.28
2022-07-29T23:10:49.652Z,100157.09
2022-07-29T23:12:54.252Z,100155.34
2022-07-29T23:14:59.696Z,100151.23
2022-07-29T23:17:05.359Z,100149.7
2022-07-29T23:19:10.040Z,100145.23
2022-07-29T23:21:14.651Z,100140.38
2022-07-29T23:23:19.186Z,100135.31
2022-07-29T23:25:24.963Z,100135.05
2022-07-29T23:27:29.660Z,100135.97
2022-07-29T23:29:37.997Z,100132.01
2022-07-29T23:31:49.373Z,100133.23
2022-07-29T23:33:53.989Z,100132.82
2022-07-29T23:35:58.614Z,100134.64
2022-07-29T23:38:03.232Z,100136.41
2022-07-29T23:40:14.584Z,100134.19
2022-07-29T23:42:19.641Z,100129.91
2022-07-29T23:44:24.332Z,100133.16
2022-07-29T23:46:28.972Z,100128.6
2022-07-29T23:48:33.580Z,100126.48
2022-07-29T23:50:38.195Z,100123.77
2022-07-29T23:52:42.852Z,100120.25
2022-07-29T23:54:48.387Z,100116.23
2022-07-29T23:56:53.011Z,100119.81
2022-07-29T23:58:57.584Z,100116.61
